sensor_id;sensor_type;location;lat;lon;timestamp;P1;durP1;ratioP1;P2;durP2;ratioP2
30896;SDS011;64229;52.246;21.054;2022-10-31T00:00:27;38.85;;;22.30;;
30896;SDS011;64229;52.246;21.054;2022-10-31T00:02:52;36.77;;;21.17;;
30896;SDS011;64229;52.246;21.054;2022-10-31T00:05:17;36.43;;;23.67;;
30896;SDS011;64229;52.246;21.054;2022-10-31T00:07:42;44.43;;;24.83;;
30896;SDS011;64229;52.246;21.054;2022-10-31T00:10:08;45.30;;;25.50;;
30896;SDS011;64229;52.246;21.054;2022-10-31T00:12:33;48.25;;;26.15;;
30896;SDS011;64229;52.246;21.054;2022-10-31T00:14:59;46.20;;;27.77;;
30896;SDS011;64229;52.246;21.054;2022-10-31T00:17:24;51.27;;;27.23;;
30896;SDS011;64229;52.246;21.054;2022-10-31T00:19:49;44.53;;;25.60;;
30896;SDS011;64229;52.246;21.054;2022-10-31T00:22:14;45.15;;;25.90;;
30896;SDS011;64229;52.246;21.054;2022-10-31T00:24:40;44.07;;;25.53;;
30896;SDS011;64229;52.246;21.054;2022-10-31T00:27:05;50.10;;;28.43;;
30896;SDS011;64229;52.246;21.054;2022-10-31T00:29:30;51.57;;;28.00;;
30896;SDS011;64229;52.246;21.054;2022-10-31T00:31:55;51.28;;;29.30;;
30896;SDS011;64229;52.246;21.054;2022-10-31T00:34:21;51.97;;;28.42;;
30896;SDS011;64229;52.246;21.054;2022-10-31T00:36:46;53.50;;;29.47;;
30896;SDS011;64229;52.246;21.054;2022-10-31T00:39:11;48.38;;;27.55;;
30896;SDS011;64229;52.246;21.054;2022-10-31T00:41:36;54.27;;;29.13;;
30896;SDS011;64229;52.246;21.054;2022-10-31T00:44:02;51.00;;;28.10;;
30896;SDS011;64229;52.246;21.054;2022-10-31T00:46:27;55.65;;;29.80;;
30896;SDS011;64229;52.246;21.054;2022-10-31T00:48:53;56.10;;;29.42;;
30896;SDS011;64229;52.246;21.054;2022-10-31T00:51:18;59.38;;;31.40;;
30896;SDS011;64229;52.246;21.054;2022-10-31T00:53:43;54.10;;;28.80;;
30896;SDS011;64229;52.246;21.054;2022-10-31T00:56:08;59.85;;;32.20;;
30896;SDS011;64229;52.246;21.054;2022-10-31T00:58:34;56.95;;;30.17;;
30896;SDS011;64229;52.246;21.054;2022-10-31T01:00:59;56.97;;;31.73;;
30896;SDS011;64229;52.246;21.054;2022-10-31T01:03:25;60.72;;;33.55;;
30896;SDS011;64229;52.246;21.054;2022-10-31T01:05:56;71.65;;;31.75;;
30896;SDS011;64229;52.246;21.054;2022-10-31T01:08:22;62.33;;;33.95;;
30896;SDS011;64229;52.246;21.054;2022-10-31T01:10:57;56.58;;;31.55;;
30896;SDS011;64229;52.246;21.054;2022-10-31T01:13:23;56.30;;;31.00;;
30896;SDS011;64229;52.246;21.054;2022-10-31T01:15:53;53.97;;;29.07;;
30896;SDS011;64229;52.246;21.054;2022-10-31T01:18:19;52.65;;;29.92;;
30896;SDS011;64229;52.246;21.054;2022-10-31T01:20:44;54.42;;;28.50;;
30896;SDS011;64229;52.246;21.054;2022-10-31T01:23:10;57.83;;;29.87;;
30896;SDS011;64229;52.246;21.054;2022-10-31T01:25:35;58.83;;;33.05;;
30896;SDS011;64229;52.246;21.054;2022-10-31T01:28:00;56.38;;;30.88;;
30896;SDS011;64229;52.246;21.054;2022-10-31T01:30:25;62.80;;;33.83;;
30896;SDS011;64229;52.246;21.054;2022-10-31T01:32:51;60.63;;;34.17;;
30896;SDS011;64229;52.246;21.054;2022-10-31T01:35:16;62.70;;;33.13;;
30896;SDS011;64229;52.246;21.054;2022-10-31T01:37:41;61.73;;;32.83;;
30896;SDS011;64229;52.246;21.054;2022-10-31T01:40:07;66.10;;;37.57;;
30896;SDS011;64229;52.246;21.054;2022-10-31T01:42:32;70.38;;;36.17;;
30896;SDS011;64229;52.246;21.054;2022-10-31T01:44:59;64.00;;;35.28;;
30896;SDS011;64229;52.246;21.054;2022-10-31T01:47:28;67.43;;;36.25;;
30896;SDS011;64229;52.246;21.054;2022-10-31T01:49:59;69.20;;;36.85;;
30896;SDS011;64229;52.246;21.054;2022-10-31T01:52:31;65.28;;;34.85;;
30896;SDS011;64229;52.246;21.054;2022-10-31T01:55:06;64.72;;;33.88;;
30896;SDS011;64229;52.246;21.054;2022-10-31T01:57:37;64.95;;;36.10;;
30896;SDS011;64229;52.246;21.054;2022-10-31T02:00:06;63.72;;;34.53;;
30896;SDS011;64229;52.246;21.054;2022-10-31T02:02:33;63.13;;;34.95;;
30896;SDS011;64229;52.246;21.054;2022-10-31T02:04:59;66.43;;;35.38;;
30896;SDS011;64229;52.246;21.054;2022-10-31T02:07:27;67.50;;;35.30;;
30896;SDS011;64229;52.246;21.054;2022-10-31T02:09:57;65.97;;;35.92;;
30896;SDS011;64229;52.246;21.054;2022-10-31T02:12:24;64.55;;;35.72;;
30896;SDS011;64229;52.246;21.054;2022-10-31T02:14:50;69.15;;;34.78;;
30896;SDS011;64229;52.246;21.054;2022-10-31T02:17:15;68.85;;;35.97;;
30896;SDS011;64229;52.246;21.054;2022-10-31T02:22:31;65.13;;;34.95;;
30896;SDS011;64229;52.246;21.054;2022-10-31T02:27:40;65.45;;;35.53;;
30896;SDS011;64229;52.246;21.054;2022-10-31T02:32:54;69.22;;;35.20;;
30896;SDS011;64229;52.246;21.054;2022-10-31T02:35:28;65.93;;;36.33;;
30896;SDS011;64229;52.246;21.054;2022-10-31T02:41:04;51.72;;;29.38;;
30896;SDS011;64229;52.246;21.054;2022-10-31T02:43:55;65.43;;;34.50;;
30896;SDS011;64229;52.246;21.054;2022-10-31T02:46:36;65.47;;;35.78;;
30896;SDS011;64229;52.246;21.054;2022-10-31T02:49:15;66.18;;;35.97;;
30896;SDS011;64229;52.246;21.054;2022-10-31T02:51:49;59.40;;;35.20;;
30896;SDS011;64229;52.246;21.054;2022-10-31T02:54:19;64.28;;;36.40;;
30896;SDS011;64229;52.246;21.054;2022-10-31T02:56:47;65.90;;;35.50;;
30896;SDS011;64229;52.246;21.054;2022-10-31T02:59:16;63.78;;;36.30;;
30896;SDS011;64229;52.246;21.054;2022-10-31T03:04:31;66.60;;;35.83;;
30896;SDS011;64229;52.246;21.054;2022-10-31T03:10:16;69.53;;;37.70;;
30896;SDS011;64229;52.246;21.054;2022-10-31T03:12:58;62.60;;;36.17;;
30896;SDS011;64229;52.246;21.054;2022-10-31T03:15:33;61.27;;;34.43;;
30896;SDS011;64229;52.246;21.054;2022-10-31T03:18:04;63.22;;;34.78;;
30896;SDS011;64229;52.246;21.054;2022-10-31T03:20:37;59.53;;;33.35;;
30896;SDS011;64229;52.246;21.054;2022-10-31T03:23:06;59.67;;;34.10;;
30896;SDS011;64229;52.246;21.054;2022-10-31T03:25:36;61.92;;;34.38;;
30896;SDS011;64229;52.246;21.054;2022-10-31T03:28:04;60.22;;;33.78;;
30896;SDS011;64229;52.246;21.054;2022-10-31T03:30:31;61.58;;;33.88;;
30896;SDS011;64229;52.246;21.054;2022-10-31T03:33:00;62.00;;;35.85;;
30896;SDS011;64229;52.246;21.054;2022-10-31T03:35:28;63.42;;;37.35;;
30896;SDS011;64229;52.246;21.054;2022-10-31T03:37:55;65.55;;;37.08;;
30896;SDS011;64229;52.246;21.054;2022-10-31T03:40:24;67.55;;;37.65;;
30896;SDS011;64229;52.246;21.054;2022-10-31T03:42:57;70.03;;;38.35;;
30896;SDS011;64229;52.246;21.054;2022-10-31T03:45:28;69.18;;;38.75;;
30896;SDS011;64229;52.246;21.054;2022-10-31T03:47:55;63.75;;;37.17;;
30896;SDS011;64229;52.246;21.054;2022-10-31T03:50:23;74.43;;;39.88;;
30896;SDS011;64229;52.246;21.054;2022-10-31T03:53:06;86.15;;;41.35;;
30896;SDS011;64229;52.246;21.054;2022-10-31T03:55:39;73.13;;;38.58;;
30896;SDS011;64229;52.246;21.054;2022-10-31T03:58:14;72.20;;;38.90;;
30896;SDS011;64229;52.246;21.054;2022-10-31T04:00:46;69.75;;;37.58;;
30896;SDS011;64229;52.246;21.054;2022-10-31T04:03:17;70.32;;;38.65;;
30896;SDS011;64229;52.246;21.054;2022-10-31T04:05:47;71.80;;;38.88;;
30896;SDS011;64229;52.246;21.054;2022-10-31T04:08:16;69.05;;;38.00;;
30896;SDS011;64229;52.246;21.054;2022-10-31T04:10:43;70.38;;;37.20;;
30896;SDS011;64229;52.246;21.054;2022-10-31T04:13:14;69.63;;;38.63;;
30896;SDS011;64229;52.246;21.054;2022-10-31T04:15:44;65.03;;;36.85;;
30896;SDS011;64229;52.246;21.054;2022-10-31T04:18:10;70.18;;;36.97;;
30896;SDS011;64229;52.246;21.054;2022-10-31T04:20:36;67.20;;;37.50;;
30896;SDS011;64229;52.246;21.054;2022-10-31T04:23:03;71.15;;;38.92;;
30896;SDS011;64229;52.246;21.054;2022-10-31T04:25:29;65.57;;;36.55;;
30896;SDS011;64229;52.246;21.054;2022-10-31T04:27:54;66.67;;;36.27;;
30896;SDS011;64229;52.246;21.054;2022-10-31T04:30:20;67.57;;;35.15;;
30896;SDS011;64229;52.246;21.054;2022-10-31T04:32:45;62.40;;;34.03;;
30896;SDS011;64229;52.246;21.054;2022-10-31T04:35:10;64.28;;;35.70;;
30896;SDS011;64229;52.246;21.054;2022-10-31T04:37:36;62.38;;;34.30;;
30896;SDS011;64229;52.246;21.054;2022-10-31T04:40:01;62.25;;;34.67;;
30896;SDS011;64229;52.246;21.054;2022-10-31T04:42:28;56.92;;;32.88;;
30896;SDS011;64229;52.246;21.054;2022-10-31T04:44:54;62.03;;;34.30;;
30896;SDS011;64229;52.246;21.054;2022-10-31T04:47:20;66.13;;;36.63;;
30896;SDS011;64229;52.246;21.054;2022-10-31T04:49:45;70.27;;;38.67;;
30896;SDS011;64229;52.246;21.054;2022-10-31T04:52:10;66.80;;;37.50;;
30896;SDS011;64229;52.246;21.054;2022-10-31T04:54:35;65.15;;;36.17;;
30896;SDS011;64229;52.246;21.054;2022-10-31T04:57:01;67.78;;;37.17;;
30896;SDS011;64229;52.246;21.054;2022-10-31T04:59:26;71.83;;;40.20;;
30896;SDS011;64229;52.246;21.054;2022-10-31T05:01:51;73.77;;;39.40;;
30896;SDS011;64229;52.246;21.054;2022-10-31T05:04:16;69.87;;;39.67;;
30896;SDS011;64229;52.246;21.054;2022-10-31T05:06:42;78.38;;;39.47;;
30896;SDS011;64229;52.246;21.054;2022-10-31T05:09:07;74.17;;;39.73;;
30896;SDS011;64229;52.246;21.054;2022-10-31T05:11:32;73.30;;;39.33;;
30896;SDS011;64229;52.246;21.054;2022-10-31T05:13:57;75.27;;;39.63;;
30896;SDS011;64229;52.246;21.054;2022-10-31T05:16:23;75.13;;;39.57;;
30896;SDS011;64229;52.246;21.054;2022-10-31T05:18:48;77.40;;;39.90;;
30896;SDS011;64229;52.246;21.054;2022-10-31T05:21:13;74.60;;;40.00;;
30896;SDS011;64229;52.246;21.054;2022-10-31T05:23:38;74.80;;;39.63;;
30896;SDS011;64229;52.246;21.054;2022-10-31T05:26:04;74.47;;;38.53;;
30896;SDS011;64229;52.246;21.054;2022-10-31T05:28:29;78.57;;;40.20;;
30896;SDS011;64229;52.246;21.054;2022-10-31T05:30:54;81.43;;;41.65;;
30896;SDS011;64229;52.246;21.054;2022-10-31T05:33:19;74.67;;;40.47;;
30896;SDS011;64229;52.246;21.054;2022-10-31T05:35:45;83.22;;;41.65;;
30896;SDS011;64229;52.246;21.054;2022-10-31T05:38:10;77.00;;;38.93;;
30896;SDS011;64229;52.246;21.054;2022-10-31T05:40:35;68.07;;;37.50;;
30896;SDS011;64229;52.246;21.054;2022-10-31T05:43:01;71.97;;;37.90;;
30896;SDS011;64229;52.246;21.054;2022-10-31T05:45:26;78.57;;;37.83;;
30896;SDS011;64229;52.246;21.054;2022-10-31T05:47:56;73.35;;;36.53;;
30896;SDS011;64229;52.246;21.054;2022-10-31T05:50:23;74.28;;;36.67;;
30896;SDS011;64229;52.246;21.054;2022-10-31T05:52:59;70.53;;;36.47;;
30896;SDS011;64229;52.246;21.054;2022-10-31T05:55:27;79.82;;;38.15;;
30896;SDS011;64229;52.246;21.054;2022-10-31T05:57:53;79.60;;;35.60;;
30896;SDS011;64229;52.246;21.054;2022-10-31T06:00:19;78.05;;;36.88;;
30896;SDS011;64229;52.246;21.054;2022-10-31T06:02:45;84.70;;;36.33;;
30896;SDS011;64229;52.246;21.054;2022-10-31T06:05:11;81.43;;;35.70;;
30896;SDS011;64229;52.246;21.054;2022-10-31T06:07:36;79.00;;;34.80;;
30896;SDS011;64229;52.246;21.054;2022-10-31T06:10:03;78.30;;;34.03;;
30896;SDS011;64229;52.246;21.054;2022-10-31T06:12:29;89.35;;;33.05;;
30896;SDS011;64229;52.246;21.054;2022-10-31T06:14:55;96.25;;;33.90;;
30896;SDS011;64229;52.246;21.054;2022-10-31T06:17:20;90.70;;;32.80;;
30896;SDS011;64229;52.246;21.054;2022-10-31T06:19:45;96.72;;;34.60;;
30896;SDS011;64229;52.246;21.054;2022-10-31T06:22:11;89.20;;;36.05;;
30896;SDS011;64229;52.246;21.054;2022-10-31T06:24:36;84.20;;;35.65;;
30896;SDS011;64229;52.246;21.054;2022-10-31T06:27:02;77.28;;;34.45;;
30896;SDS011;64229;52.246;21.054;2022-10-31T06:29:27;77.20;;;33.72;;
30896;SDS011;64229;52.246;21.054;2022-10-31T06:31:52;70.30;;;32.67;;
30896;SDS011;64229;52.246;21.054;2022-10-31T06:34:18;68.10;;;29.20;;
30896;SDS011;64229;52.246;21.054;2022-10-31T06:36:45;60.38;;;25.77;;
30896;SDS011;64229;52.246;21.054;2022-10-31T06:39:11;57.50;;;24.35;;
30896;SDS011;64229;52.246;21.054;2022-10-31T06:41:36;55.72;;;21.98;;
30896;SDS011;64229;52.246;21.054;2022-10-31T06:44:01;55.55;;;23.02;;
30896;SDS011;64229;52.246;21.054;2022-10-31T06:46:27;56.83;;;23.10;;
30896;SDS011;64229;52.246;21.054;2022-10-31T06:48:52;60.40;;;23.17;;
30896;SDS011;64229;52.246;21.054;2022-10-31T06:51:17;52.77;;;21.70;;
30896;SDS011;64229;52.246;21.054;2022-10-31T06:53:42;56.97;;;20.73;;
30896;SDS011;64229;52.246;21.054;2022-10-31T06:56:07;61.37;;;22.20;;
30896;SDS011;64229;52.246;21.054;2022-10-31T06:58:33;58.45;;;24.05;;
30896;SDS011;64229;52.246;21.054;2022-10-31T07:00:59;79.25;;;25.92;;
30896;SDS011;64229;52.246;21.054;2022-10-31T07:03:25;78.25;;;25.65;;
30896;SDS011;64229;52.246;21.054;2022-10-31T07:05:50;73.93;;;26.98;;
30896;SDS011;64229;52.246;21.054;2022-10-31T07:08:16;66.45;;;26.38;;
30896;SDS011;64229;52.246;21.054;2022-10-31T07:10:41;62.40;;;24.83;;
30896;SDS011;64229;52.246;21.054;2022-10-31T07:13:12;73.85;;;24.27;;
30896;SDS011;64229;52.246;21.054;2022-10-31T07:15:39;74.20;;;25.52;;
30896;SDS011;64229;52.246;21.054;2022-10-31T07:18:07;65.43;;;23.88;;
30896;SDS011;64229;52.246;21.054;2022-10-31T07:20:34;69.65;;;22.55;;
30896;SDS011;64229;52.246;21.054;2022-10-31T07:23:00;79.30;;;23.52;;
30896;SDS011;64229;52.246;21.054;2022-10-31T07:25:25;66.80;;;24.25;;
30896;SDS011;64229;52.246;21.054;2022-10-31T07:27:51;80.40;;;25.63;;
30896;SDS011;64229;52.246;21.054;2022-10-31T07:30:17;74.50;;;25.88;;
30896;SDS011;64229;52.246;21.054;2022-10-31T07:35:14;67.35;;;25.15;;
30896;SDS011;64229;52.246;21.054;2022-10-31T07:37:40;67.97;;;27.02;;
30896;SDS011;64229;52.246;21.054;2022-10-31T07:40:06;80.05;;;27.45;;
30896;SDS011;64229;52.246;21.054;2022-10-31T07:42:35;77.15;;;27.67;;
30896;SDS011;64229;52.246;21.054;2022-10-31T07:45:02;89.85;;;28.75;;
30896;SDS011;64229;52.246;21.054;2022-10-31T07:47:28;79.75;;;28.88;;
30896;SDS011;64229;52.246;21.054;2022-10-31T07:49:54;82.93;;;29.42;;
30896;SDS011;64229;52.246;21.054;2022-10-31T07:52:19;64.97;;;26.97;;
30896;SDS011;64229;52.246;21.054;2022-10-31T07:54:44;52.20;;;21.83;;
30896;SDS011;64229;52.246;21.054;2022-10-31T07:57:09;56.17;;;22.87;;
30896;SDS011;64229;52.246;21.054;2022-10-31T07:59:35;60.40;;;22.60;;
30896;SDS011;64229;52.246;21.054;2022-10-31T08:02:00;60.63;;;22.40;;
30896;SDS011;64229;52.246;21.054;2022-10-31T08:04:25;59.60;;;22.43;;
30896;SDS011;64229;52.246;21.054;2022-10-31T08:06:50;48.65;;;21.48;;
30896;SDS011;64229;52.246;21.054;2022-10-31T08:09:15;48.17;;;21.20;;
30896;SDS011;64229;52.246;21.054;2022-10-31T08:11:41;47.53;;;20.33;;
30896;SDS011;64229;52.246;21.054;2022-10-31T08:14:06;47.13;;;19.77;;
30896;SDS011;64229;52.246;21.054;2022-10-31T08:16:31;42.25;;;19.55;;
30896;SDS011;64229;52.246;21.054;2022-10-31T08:18:56;43.45;;;19.45;;
30896;SDS011;64229;52.246;21.054;2022-10-31T08:21:22;37.05;;;16.10;;
30896;SDS011;64229;52.246;21.054;2022-10-31T08:23:47;49.35;;;19.25;;
30896;SDS011;64229;52.246;21.054;2022-10-31T08:26:12;49.57;;;19.00;;
30896;SDS011;64229;52.246;21.054;2022-10-31T08:28:38;49.05;;;19.15;;
30896;SDS011;64229;52.246;21.054;2022-10-31T08:31:03;43.30;;;18.13;;
30896;SDS011;64229;52.246;21.054;2022-10-31T08:33:29;41.30;;;19.48;;
30896;SDS011;64229;52.246;21.054;2022-10-31T08:35:55;42.72;;;18.17;;
30896;SDS011;64229;52.246;21.054;2022-10-31T08:38:22;36.60;;;18.17;;
30896;SDS011;64229;52.246;21.054;2022-10-31T08:40:48;40.87;;;17.23;;
30896;SDS011;64229;52.246;21.054;2022-10-31T08:43:14;39.60;;;17.70;;
30896;SDS011;64229;52.246;21.054;2022-10-31T08:45:41;41.85;;;18.77;;
30896;SDS011;64229;52.246;21.054;2022-10-31T08:48:11;36.80;;;18.58;;
30896;SDS011;64229;52.246;21.054;2022-10-31T08:50:38;35.38;;;17.83;;
30896;SDS011;64229;52.246;21.054;2022-10-31T08:53:09;43.17;;;19.05;;
30896;SDS011;64229;52.246;21.054;2022-10-31T08:55:37;36.78;;;18.55;;
30896;SDS011;64229;52.246;21.054;2022-10-31T08:58:05;40.97;;;18.25;;
30896;SDS011;64229;52.246;21.054;2022-10-31T09:00:32;46.47;;;21.67;;
30896;SDS011;64229;52.246;21.054;2022-10-31T09:02:59;52.70;;;23.25;;
30896;SDS011;64229;52.246;21.054;2022-10-31T09:05:33;52.35;;;23.60;;
30896;SDS011;64229;52.246;21.054;2022-10-31T09:07:59;53.78;;;24.45;;
30896;SDS011;64229;52.246;21.054;2022-10-31T09:10:28;51.13;;;23.88;;
30896;SDS011;64229;52.246;21.054;2022-10-31T09:12:54;54.85;;;23.98;;
30896;SDS011;64229;52.246;21.054;2022-10-31T09:15:27;55.47;;;26.20;;
30896;SDS011;64229;52.246;21.054;2022-10-31T09:17:53;46.53;;;24.27;;
30896;SDS011;64229;52.246;21.054;2022-10-31T09:20:19;50.20;;;23.05;;
30896;SDS011;64229;52.246;21.054;2022-10-31T09:22:45;43.33;;;22.42;;
30896;SDS011;64229;52.246;21.054;2022-10-31T09:25:10;41.63;;;22.45;;
30896;SDS011;64229;52.246;21.054;2022-10-31T09:27:36;40.83;;;22.15;;
30896;SDS011;64229;52.246;21.054;2022-10-31T09:30:01;46.97;;;23.92;;
30896;SDS011;64229;52.246;21.054;2022-10-31T09:32:27;46.25;;;22.98;;
30896;SDS011;64229;52.246;21.054;2022-10-31T09:34:52;40.63;;;21.50;;
30896;SDS011;64229;52.246;21.054;2022-10-31T09:37:17;41.20;;;22.20;;
30896;SDS011;64229;52.246;21.054;2022-10-31T09:39:43;37.23;;;19.73;;
30896;SDS011;64229;52.246;21.054;2022-10-31T09:44:51;39.38;;;20.95;;
30896;SDS011;64229;52.246;21.054;2022-10-31T09:47:35;39.47;;;21.55;;
30896;SDS011;64229;52.246;21.054;2022-10-31T09:50:14;45.33;;;22.90;;
30896;SDS011;64229;52.246;21.054;2022-10-31T09:56:00;40.72;;;21.40;;
30896;SDS011;64229;52.246;21.054;2022-10-31T09:58:29;38.65;;;20.85;;
30896;SDS011;64229;52.246;21.054;2022-10-31T10:00:58;40.28;;;20.92;;
30896;SDS011;64229;52.246;21.054;2022-10-31T10:06:13;50.58;;;27.20;;
30896;SDS011;64229;52.246;21.054;2022-10-31T10:08:42;56.00;;;25.77;;
30896;SDS011;64229;52.246;21.054;2022-10-31T10:11:20;42.58;;;24.20;;
30896;SDS011;64229;52.246;21.054;2022-10-31T10:19:31;48.90;;;26.15;;
30896;SDS011;64229;52.246;21.054;2022-10-31T10:22:24;44.33;;;25.13;;
30896;SDS011;64229;52.246;21.054;2022-10-31T10:30:18;40.97;;;23.83;;
30896;SDS011;64229;52.246;21.054;2022-10-31T10:40:42;35.33;;;20.00;;
30896;SDS011;64229;52.246;21.054;2022-10-31T10:43:19;32.38;;;19.17;;
30896;SDS011;64229;52.246;21.054;2022-10-31T10:48:56;34.25;;;20.40;;
30896;SDS011;64229;52.246;21.054;2022-10-31T10:51:44;36.28;;;19.85;;
30896;SDS011;64229;52.246;21.054;2022-10-31T10:57:10;40.60;;;21.35;;
30896;SDS011;64229;52.246;21.054;2022-10-31T10:59:44;30.42;;;18.63;;
30896;SDS011;64229;52.246;21.054;2022-10-31T11:02:15;32.35;;;19.25;;
30896;SDS011;64229;52.246;21.054;2022-10-31T11:04:42;36.28;;;19.25;;
30896;SDS011;64229;52.246;21.054;2022-10-31T11:07:10;33.35;;;19.05;;
30896;SDS011;64229;52.246;21.054;2022-10-31T11:09:36;33.72;;;18.67;;
30896;SDS011;64229;52.246;21.054;2022-10-31T11:14:56;26.83;;;17.10;;
30896;SDS011;64229;52.246;21.054;2022-10-31T11:19:59;28.45;;;16.25;;
30896;SDS011;64229;52.246;21.054;2022-10-31T11:22:26;29.40;;;17.15;;
30896;SDS011;64229;52.246;21.054;2022-10-31T11:24:51;29.48;;;16.08;;
30896;SDS011;64229;52.246;21.054;2022-10-31T11:27:20;25.85;;;15.35;;
30896;SDS011;64229;52.246;21.054;2022-10-31T11:29:48;32.10;;;17.67;;
30896;SDS011;64229;52.246;21.054;2022-10-31T11:32:24;25.77;;;15.40;;
30896;SDS011;64229;52.246;21.054;2022-10-31T11:34:52;25.63;;;14.63;;
30896;SDS011;64229;52.246;21.054;2022-10-31T11:37:40;35.38;;;16.73;;
30896;SDS011;64229;52.246;21.054;2022-10-31T11:40:19;26.90;;;13.60;;
30896;SDS011;64229;52.246;21.054;2022-10-31T11:42:46;24.50;;;13.60;;
30896;SDS011;64229;52.246;21.054;2022-10-31T11:45:19;21.67;;;12.88;;
30896;SDS011;64229;52.246;21.054;2022-10-31T11:47:52;21.55;;;13.27;;
30896;SDS011;64229;52.246;21.054;2022-10-31T11:50:23;21.77;;;12.60;;
30896;SDS011;64229;52.246;21.054;2022-10-31T11:52:51;23.92;;;12.70;;
30896;SDS011;64229;52.246;21.054;2022-10-31T11:55:37;19.05;;;11.40;;
30896;SDS011;64229;52.246;21.054;2022-10-31T11:58:04;21.92;;;11.95;;
30896;SDS011;64229;52.246;21.054;2022-10-31T12:00:48;20.73;;;11.98;;
30896;SDS011;64229;52.246;21.054;2022-10-31T12:03:26;23.45;;;12.00;;
30896;SDS011;64229;52.246;21.054;2022-10-31T12:06:13;26.70;;;12.38;;
30896;SDS011;64229;52.246;21.054;2022-10-31T12:08:49;20.30;;;11.40;;
30896;SDS011;64229;52.246;21.054;2022-10-31T12:11:22;23.80;;;12.73;;
30896;SDS011;64229;52.246;21.054;2022-10-31T12:19:26;20.92;;;12.07;;
30896;SDS011;64229;52.246;21.054;2022-10-31T12:22:05;25.73;;;12.25;;
30896;SDS011;64229;52.246;21.054;2022-10-31T12:30:41;19.00;;;10.23;;
30896;SDS011;64229;52.246;21.054;2022-10-31T12:33:23;19.00;;;10.25;;
30896;SDS011;64229;52.246;21.054;2022-10-31T12:44:29;16.63;;;8.25;;
30896;SDS011;64229;52.246;21.054;2022-10-31T12:50:02;12.18;;;6.68;;
30896;SDS011;64229;52.246;21.054;2022-10-31T12:52:45;14.18;;;7.15;;
30896;SDS011;64229;52.246;21.054;2022-10-31T13:00:51;16.50;;;8.05;;
30896;SDS011;64229;52.246;21.054;2022-10-31T13:03:29;15.32;;;8.20;;
30896;SDS011;64229;52.246;21.054;2022-10-31T13:06:03;18.65;;;7.85;;
30896;SDS011;64229;52.246;21.054;2022-10-31T13:08:42;16.95;;;7.80;;
30896;SDS011;64229;52.246;21.054;2022-10-31T13:11:24;14.40;;;7.85;;
30896;SDS011;64229;52.246;21.054;2022-10-31T13:17:10;13.40;;;7.70;;
30896;SDS011;64229;52.246;21.054;2022-10-31T13:19:45;15.48;;;8.32;;
30896;SDS011;64229;52.246;21.054;2022-10-31T13:22:13;17.15;;;8.85;;
30896;SDS011;64229;52.246;21.054;2022-10-31T13:27:28;17.27;;;8.50;;
30896;SDS011;64229;52.246;21.054;2022-10-31T13:30:02;18.63;;;9.40;;
30896;SDS011;64229;52.246;21.054;2022-10-31T13:32:38;16.67;;;8.70;;
30896;SDS011;64229;52.246;21.054;2022-10-31T13:35:18;21.70;;;9.75;;
30896;SDS011;64229;52.246;21.054;2022-10-31T13:38:35;16.98;;;9.43;;
30896;SDS011;64229;52.246;21.054;2022-10-31T13:41:14;16.58;;;8.95;;
30896;SDS011;64229;52.246;21.054;2022-10-31T13:48:55;15.70;;;7.80;;
30896;SDS011;64229;52.246;21.054;2022-10-31T13:51:25;16.20;;;8.90;;
30896;SDS011;64229;52.246;21.054;2022-10-31T13:53:57;15.40;;;7.75;;
30896;SDS011;64229;52.246;21.054;2022-10-31T13:56:25;24.75;;;12.38;;
30896;SDS011;64229;52.246;21.054;2022-10-31T13:58:56;26.15;;;13.30;;
30896;SDS011;64229;52.246;21.054;2022-10-31T14:01:22;25.85;;;14.00;;
30896;SDS011;64229;52.246;21.054;2022-10-31T14:04:36;29.95;;;15.10;;
30896;SDS011;64229;52.246;21.054;2022-10-31T14:06:41;28.80;;;16.35;;
30896;SDS011;64229;52.246;21.054;2022-10-31T14:09:20;27.90;;;16.98;;
30896;SDS011;64229;52.246;21.054;2022-10-31T14:11:49;35.15;;;18.48;;
30896;SDS011;64229;52.246;21.054;2022-10-31T14:14:16;29.92;;;17.38;;
30896;SDS011;64229;52.246;21.054;2022-10-31T14:16:43;29.40;;;16.75;;
30896;SDS011;64229;52.246;21.054;2022-10-31T14:19:17;37.60;;;17.73;;
30896;SDS011;64229;52.246;21.054;2022-10-31T14:21:45;29.50;;;17.03;;
30896;SDS011;64229;52.246;21.054;2022-10-31T14:24:29;35.35;;;18.48;;
30896;SDS011;64229;52.246;21.054;2022-10-31T14:29:46;35.60;;;20.30;;
30896;SDS011;64229;52.246;21.054;2022-10-31T14:34:42;36.83;;;21.13;;
30896;SDS011;64229;52.246;21.054;2022-10-31T14:48:32;42.28;;;21.52;;
30896;SDS011;64229;52.246;21.054;2022-10-31T14:51:12;45.35;;;23.83;;
30896;SDS011;64229;52.246;21.054;2022-10-31T14:58:52;43.08;;;23.30;;
30896;SDS011;64229;52.246;21.054;2022-10-31T15:01:27;42.75;;;22.60;;
30896;SDS011;64229;52.246;21.054;2022-10-31T15:07:00;40.88;;;21.60;;
30896;SDS011;64229;52.246;21.054;2022-10-31T15:09:33;41.08;;;23.08;;
30896;SDS011;64229;52.246;21.054;2022-10-31T15:12:00;42.55;;;22.60;;
30896;SDS011;64229;52.246;21.054;2022-10-31T15:14:45;37.15;;;20.75;;
30896;SDS011;64229;52.246;21.054;2022-10-31T15:17:11;41.25;;;20.38;;
30896;SDS011;64229;52.246;21.054;2022-10-31T15:19:37;42.17;;;21.95;;
30896;SDS011;64229;52.246;21.054;2022-10-31T15:22:02;43.10;;;22.48;;
30896;SDS011;64229;52.246;21.054;2022-10-31T15:24:32;44.15;;;21.98;;
30896;SDS011;64229;52.246;21.054;2022-10-31T15:27:00;37.67;;;19.83;;
30896;SDS011;64229;52.246;21.054;2022-10-31T15:29:26;42.72;;;20.13;;
30896;SDS011;64229;52.246;21.054;2022-10-31T15:32:00;37.22;;;19.13;;
30896;SDS011;64229;52.246;21.054;2022-10-31T15:34:41;40.22;;;19.75;;
30896;SDS011;64229;52.246;21.054;2022-10-31T15:37:14;41.03;;;19.80;;
30896;SDS011;64229;52.246;21.054;2022-10-31T15:39:41;44.80;;;20.25;;
30896;SDS011;64229;52.246;21.054;2022-10-31T15:42:24;46.95;;;19.73;;
30896;SDS011;64229;52.246;21.054;2022-10-31T15:47:24;51.60;;;22.40;;
30896;SDS011;64229;52.246;21.054;2022-10-31T15:49:50;44.65;;;21.10;;
30896;SDS011;64229;52.246;21.054;2022-10-31T15:55:05;45.03;;;19.92;;
30896;SDS011;64229;52.246;21.054;2022-10-31T15:57:39;41.17;;;20.00;;
30896;SDS011;64229;52.246;21.054;2022-10-31T16:00:20;42.67;;;20.35;;
30896;SDS011;64229;52.246;21.054;2022-10-31T16:03:00;47.85;;;21.10;;
30896;SDS011;64229;52.246;21.054;2022-10-31T16:05:32;46.97;;;21.27;;
30896;SDS011;64229;52.246;21.054;2022-10-31T16:08:00;51.05;;;21.88;;
30896;SDS011;64229;52.246;21.054;2022-10-31T16:10:26;47.17;;;23.45;;
30896;SDS011;64229;52.246;21.054;2022-10-31T16:12:51;48.67;;;22.45;;
30896;SDS011;64229;52.246;21.054;2022-10-31T16:15:19;57.38;;;24.10;;
30896;SDS011;64229;52.246;21.054;2022-10-31T16:17:49;51.95;;;22.63;;
30896;SDS011;64229;52.246;21.054;2022-10-31T16:20:23;53.97;;;24.40;;
30896;SDS011;64229;52.246;21.054;2022-10-31T16:22:51;55.63;;;24.95;;
30896;SDS011;64229;52.246;21.054;2022-10-31T16:25:39;56.50;;;23.88;;
30896;SDS011;64229;52.246;21.054;2022-10-31T16:28:05;59.22;;;25.30;;